Aruba, Aruba

12:12 AM AST on August 26, 2016 (GMT -0400)
Oranjestad-Reina Beatrix International | | Change Station

Elev 59 ft 12.50 °N, 70.02 °W | Updated 12 minutes ago

Partly Cloudy
Partly Cloudy
84 °F
Feels Like 96 °F
N
17
Wind Variable Wind from East

Today
High -- | Low -- °F
--% Chance of Precip.
Yesterday
High -- | Low -- °F
Precip. -- in
Pressure 29.80 in
Visibility 6.2 miles
Clouds Few 1800 ft
Heat Index 96 °F
Dew Point 79 °F
Humidity 84%
Rainfall 0.00 in
Snow Depth Not available.
6:29 AM 6:54 PM
Last Quarter, 39% visible
METAR TNCA 260400Z 10015KT 9999 FEW018 29/26 Q1009 A2982 NOSIG
Pressure 29.80 in
Visibility 6.2 miles
Clouds Few 1800 ft
Heat Index 96 °F
Dew Point 79 °F
Humidity 84%
Rainfall 0.00 in
Snow Depth Not available.
6:29 AM 6:54 PM
Last Quarter, 39% visible
METAR TNCA 260400Z 10015KT 9999 FEW018 29/26 Q1009 A2982 NOSIG
A tropical disturbance pushing toward the Bahamas, is expected to develop into a tropical depression or storm, and will likely target Florida and the Gulf Coast this weekend into next week.

Right now, the disturbance remains a broad area of low pressure pushing through the Dominican Republic and Haiti, headed toward the southeast Bahamas. Rainfall totals over 3 inches (with locally higher amounts) are expected in HispaƱiola, particularly over elevated terrain.

10-Day Weather Forecast

No radar image for this location.
×

Almanac

Astronomy

Aug. 26, 2016 Rise Set
Actual Time
Civil Twilight
Nautical Twilight
Astronomical Twilight
Moon
Length of Visible Light
Length of Day
Tomorrow will be .
, % of the Moon is Illuminated

Today's Extremes

Country Highs Country Lows

Community

WunderPhotos

Upload Photos

1,935,057 photos uploaded!

WunderBlog® & News

Nearby

Air Quality

  Air Quality AQ Index Pollutant
Not available.

Snow Depth

Station Depth Elevation

Earthquake Activity

City Distance Mag. Time & Date
Minimum magnitude displayed is 2.5.

Coastal Water Temperatures

Place Temperature

Stations

Nearby Weather Stations

Station Location Temp. Windchill Dew Point Humidity Wind Precip. Elev Updated Type